sensor_id;sensor_type;location;lat;lon;timestamp;P1;durP1;ratioP1;P2;durP2;ratioP2
22111;SDS011;11222;50.872;4.312;2022-11-20T00:00:35;54.65;;;28.10;;
22111;SDS011;11222;50.872;4.312;2022-11-20T00:03:01;55.25;;;30.38;;
22111;SDS011;11222;50.872;4.312;2022-11-20T00:05:26;54.15;;;28.58;;
22111;SDS011;11222;50.872;4.312;2022-11-20T00:07:52;55.92;;;28.73;;
22111;SDS011;11222;50.872;4.312;2022-11-20T00:10:18;54.35;;;29.52;;
22111;SDS011;11222;50.872;4.312;2022-11-20T00:12:43;59.70;;;31.27;;
22111;SDS011;11222;50.872;4.312;2022-11-20T00:15:09;63.63;;;32.25;;
22111;SDS011;11222;50.872;4.312;2022-11-20T00:17:35;56.90;;;30.10;;
22111;SDS011;11222;50.872;4.312;2022-11-20T00:20:01;59.42;;;31.35;;
22111;SDS011;11222;50.872;4.312;2022-11-20T00:22:27;67.75;;;32.28;;
22111;SDS011;11222;50.872;4.312;2022-11-20T00:24:52;62.47;;;32.10;;
22111;SDS011;11222;50.872;4.312;2022-11-20T00:27:18;68.25;;;32.60;;
22111;SDS011;11222;50.872;4.312;2022-11-20T00:29:44;59.42;;;32.30;;
22111;SDS011;11222;50.872;4.312;2022-11-20T00:32:09;64.55;;;33.42;;
22111;SDS011;11222;50.872;4.312;2022-11-20T00:34:35;65.85;;;34.85;;
22111;SDS011;11222;50.872;4.312;2022-11-20T00:37:00;68.57;;;34.17;;
22111;SDS011;11222;50.872;4.312;2022-11-20T00:39:26;66.88;;;33.72;;
22111;SDS011;11222;50.872;4.312;2022-11-20T00:41:52;71.65;;;33.58;;
22111;SDS011;11222;50.872;4.312;2022-11-20T00:44:18;68.80;;;34.38;;
22111;SDS011;11222;50.872;4.312;2022-11-20T00:46:43;71.45;;;36.00;;
22111;SDS011;11222;50.872;4.312;2022-11-20T00:49:09;68.25;;;35.33;;
22111;SDS011;11222;50.872;4.312;2022-11-20T00:51:35;68.93;;;35.42;;
22111;SDS011;11222;50.872;4.312;2022-11-20T00:54:01;71.78;;;36.20;;
22111;SDS011;11222;50.872;4.312;2022-11-20T00:56:27;72.57;;;36.78;;
22111;SDS011;11222;50.872;4.312;2022-11-20T00:58:53;70.88;;;34.60;;
22111;SDS011;11222;50.872;4.312;2022-11-20T01:01:20;66.40;;;34.97;;
22111;SDS011;11222;50.872;4.312;2022-11-20T01:03:49;70.63;;;35.80;;
22111;SDS011;11222;50.872;4.312;2022-11-20T01:06:33;75.72;;;36.45;;
22111;SDS011;11222;50.872;4.312;2022-11-20T01:09:03;72.03;;;36.10;;
22111;SDS011;11222;50.872;4.312;2022-11-20T01:11:36;70.63;;;35.43;;
22111;SDS011;11222;50.872;4.312;2022-11-20T01:14:06;73.68;;;35.03;;
22111;SDS011;11222;50.872;4.312;2022-11-20T01:16:36;70.15;;;35.65;;
22111;SDS011;11222;50.872;4.312;2022-11-20T01:19:04;68.50;;;34.42;;
22111;SDS011;11222;50.872;4.312;2022-11-20T01:21:35;67.65;;;35.13;;
22111;SDS011;11222;50.872;4.312;2022-11-20T01:24:02;62.58;;;34.53;;
22111;SDS011;11222;50.872;4.312;2022-11-20T01:26:31;70.07;;;35.17;;
22111;SDS011;11222;50.872;4.312;2022-11-20T01:28:58;73.63;;;35.75;;
22111;SDS011;11222;50.872;4.312;2022-11-20T01:31:31;66.88;;;35.20;;
22111;SDS011;11222;50.872;4.312;2022-11-20T01:34:02;66.72;;;36.08;;
22111;SDS011;11222;50.872;4.312;2022-11-20T01:36:33;74.35;;;36.45;;
22111;SDS011;11222;50.872;4.312;2022-11-20T01:39:03;73.28;;;36.33;;
22111;SDS011;11222;50.872;4.312;2022-11-20T01:41:31;67.47;;;34.95;;
22111;SDS011;11222;50.872;4.312;2022-11-20T01:44:18;78.57;;;34.53;;
22111;SDS011;11222;50.872;4.312;2022-11-20T01:49:27;69.75;;;35.00;;
22111;SDS011;11222;50.872;4.312;2022-11-20T01:52:07;64.85;;;33.75;;
22111;SDS011;11222;50.872;4.312;2022-11-20T01:55:17;72.78;;;34.90;;
22111;SDS011;11222;50.872;4.312;2022-11-20T01:57:34;72.72;;;35.65;;
22111;SDS011;11222;50.872;4.312;2022-11-20T02:00:20;75.15;;;35.08;;
22111;SDS011;11222;50.872;4.312;2022-11-20T02:02:56;71.67;;;35.50;;
22111;SDS011;11222;50.872;4.312;2022-11-20T02:05:28;75.97;;;34.25;;
22111;SDS011;11222;50.872;4.312;2022-11-20T02:08:02;71.95;;;37.28;;
22111;SDS011;11222;50.872;4.312;2022-11-20T02:10:29;78.43;;;35.22;;
22111;SDS011;11222;50.872;4.312;2022-11-20T02:12:57;73.47;;;34.45;;
22111;SDS011;11222;50.872;4.312;2022-11-20T02:15:41;73.28;;;36.33;;
22111;SDS011;11222;50.872;4.312;2022-11-20T02:18:08;77.38;;;37.03;;
22111;SDS011;11222;50.872;4.312;2022-11-20T02:20:36;73.60;;;34.65;;
22111;SDS011;11222;50.872;4.312;2022-11-20T02:23:03;72.88;;;35.67;;
22111;SDS011;11222;50.872;4.312;2022-11-20T02:25:37;67.35;;;35.67;;
22111;SDS011;11222;50.872;4.312;2022-11-20T02:28:04;75.50;;;35.42;;
22111;SDS011;11222;50.872;4.312;2022-11-20T02:30:30;62.85;;;31.92;;
22111;SDS011;11222;50.872;4.312;2022-11-20T02:32:55;70.28;;;33.03;;
22111;SDS011;11222;50.872;4.312;2022-11-20T02:37:49;67.07;;;33.13;;
22111;SDS011;11222;50.872;4.312;2022-11-20T02:40:18;67.82;;;34.45;;
22111;SDS011;11222;50.872;4.312;2022-11-20T02:42:44;73.20;;;34.08;;
22111;SDS011;11222;50.872;4.312;2022-11-20T02:45:10;68.47;;;32.60;;
22111;SDS011;11222;50.872;4.312;2022-11-20T02:47:36;77.82;;;34.05;;
22111;SDS011;11222;50.872;4.312;2022-11-20T02:50:02;67.85;;;33.38;;
22111;SDS011;11222;50.872;4.312;2022-11-20T02:52:29;68.25;;;33.00;;
22111;SDS011;11222;50.872;4.312;2022-11-20T02:54:55;68.50;;;33.35;;
22111;SDS011;11222;50.872;4.312;2022-11-20T02:57:21;66.90;;;32.33;;
22111;SDS011;11222;50.872;4.312;2022-11-20T02:59:46;68.60;;;32.17;;
22111;SDS011;11222;50.872;4.312;2022-11-20T03:02:12;64.75;;;31.63;;
22111;SDS011;11222;50.872;4.312;2022-11-20T03:04:38;66.05;;;31.33;;
22111;SDS011;11222;50.872;4.312;2022-11-20T03:07:03;70.35;;;32.28;;
22111;SDS011;11222;50.872;4.312;2022-11-20T03:09:29;71.57;;;32.45;;
22111;SDS011;11222;50.872;4.312;2022-11-20T03:11:55;71.00;;;31.55;;
22111;SDS011;11222;50.872;4.312;2022-11-20T03:14:21;73.57;;;32.47;;
22111;SDS011;11222;50.872;4.312;2022-11-20T03:16:47;68.55;;;31.63;;
22111;SDS011;11222;50.872;4.312;2022-11-20T03:19:13;58.53;;;30.35;;
22111;SDS011;11222;50.872;4.312;2022-11-20T03:21:38;62.10;;;29.52;;
22111;SDS011;11222;50.872;4.312;2022-11-20T03:24:04;65.18;;;31.10;;
22111;SDS011;11222;50.872;4.312;2022-11-20T03:26:30;65.35;;;29.10;;
22111;SDS011;11222;50.872;4.312;2022-11-20T03:28:57;63.28;;;29.58;;
22111;SDS011;11222;50.872;4.312;2022-11-20T03:31:28;59.97;;;28.75;;
22111;SDS011;11222;50.872;4.312;2022-11-20T03:33:57;65.70;;;28.05;;
22111;SDS011;11222;50.872;4.312;2022-11-20T03:36:23;61.95;;;29.85;;
22111;SDS011;11222;50.872;4.312;2022-11-20T03:38:49;62.00;;;29.55;;
22111;SDS011;11222;50.872;4.312;2022-11-20T03:41:17;61.67;;;30.10;;
22111;SDS011;11222;50.872;4.312;2022-11-20T03:44:08;62.25;;;30.23;;
22111;SDS011;11222;50.872;4.312;2022-11-20T03:46:34;66.95;;;29.73;;
22111;SDS011;11222;50.872;4.312;2022-11-20T03:49:00;60.58;;;28.92;;
22111;SDS011;11222;50.872;4.312;2022-11-20T03:51:27;62.38;;;29.63;;
22111;SDS011;11222;50.872;4.312;2022-11-20T03:53:56;60.15;;;29.75;;
22111;SDS011;11222;50.872;4.312;2022-11-20T03:56:25;62.15;;;28.60;;
22111;SDS011;11222;50.872;4.312;2022-11-20T03:58:52;56.75;;;28.27;;
22111;SDS011;11222;50.872;4.312;2022-11-20T04:01:19;64.75;;;29.20;;
22111;SDS011;11222;50.872;4.312;2022-11-20T04:03:46;58.40;;;26.88;;
22111;SDS011;11222;50.872;4.312;2022-11-20T04:06:23;55.15;;;27.48;;
22111;SDS011;11222;50.872;4.312;2022-11-20T04:08:50;61.15;;;27.48;;
22111;SDS011;11222;50.872;4.312;2022-11-20T04:11:17;63.00;;;29.88;;
22111;SDS011;11222;50.872;4.312;2022-11-20T04:13:49;59.90;;;29.20;;
22111;SDS011;11222;50.872;4.312;2022-11-20T04:16:20;59.30;;;27.77;;
22111;SDS011;11222;50.872;4.312;2022-11-20T04:18:46;58.53;;;26.83;;
22111;SDS011;11222;50.872;4.312;2022-11-20T04:21:12;54.45;;;27.40;;
22111;SDS011;11222;50.872;4.312;2022-11-20T04:23:38;58.42;;;27.27;;
22111;SDS011;11222;50.872;4.312;2022-11-20T04:26:04;60.10;;;28.13;;
22111;SDS011;11222;50.872;4.312;2022-11-20T04:28:32;64.53;;;28.73;;
22111;SDS011;11222;50.872;4.312;2022-11-20T04:31:05;64.22;;;28.30;;
22111;SDS011;11222;50.872;4.312;2022-11-20T04:33:33;59.97;;;28.30;;
22111;SDS011;11222;50.872;4.312;2022-11-20T04:36:00;66.00;;;28.10;;
22111;SDS011;11222;50.872;4.312;2022-11-20T04:38:30;62.75;;;27.38;;
22111;SDS011;11222;50.872;4.312;2022-11-20T04:40:59;66.38;;;29.60;;
22111;SDS011;11222;50.872;4.312;2022-11-20T04:43:27;69.60;;;28.88;;
22111;SDS011;11222;50.872;4.312;2022-11-20T04:45:53;69.97;;;30.20;;
22111;SDS011;11222;50.872;4.312;2022-11-20T04:48:19;76.00;;;30.13;;
22111;SDS011;11222;50.872;4.312;2022-11-20T04:50:45;69.63;;;29.35;;
22111;SDS011;11222;50.872;4.312;2022-11-20T04:53:11;74.88;;;30.92;;
22111;SDS011;11222;50.872;4.312;2022-11-20T04:55:37;72.03;;;30.73;;
22111;SDS011;11222;50.872;4.312;2022-11-20T04:58:03;73.15;;;29.90;;
22111;SDS011;11222;50.872;4.312;2022-11-20T05:00:28;75.15;;;30.88;;
22111;SDS011;11222;50.872;4.312;2022-11-20T05:02:54;76.15;;;29.67;;
22111;SDS011;11222;50.872;4.312;2022-11-20T05:05:20;75.75;;;30.83;;
22111;SDS011;11222;50.872;4.312;2022-11-20T05:07:45;73.38;;;29.83;;
22111;SDS011;11222;50.872;4.312;2022-11-20T05:10:11;67.68;;;29.60;;
22111;SDS011;11222;50.872;4.312;2022-11-20T05:12:37;70.88;;;29.70;;
22111;SDS011;11222;50.872;4.312;2022-11-20T05:15:02;71.00;;;30.13;;
22111;SDS011;11222;50.872;4.312;2022-11-20T05:17:28;73.00;;;29.00;;
22111;SDS011;11222;50.872;4.312;2022-11-20T05:19:54;74.32;;;31.00;;
22111;SDS011;11222;50.872;4.312;2022-11-20T05:22:20;72.15;;;29.38;;
22111;SDS011;11222;50.872;4.312;2022-11-20T05:24:45;73.53;;;31.30;;
22111;SDS011;11222;50.872;4.312;2022-11-20T05:27:11;83.32;;;30.92;;
22111;SDS011;11222;50.872;4.312;2022-11-20T05:29:37;74.93;;;30.38;;
22111;SDS011;11222;50.872;4.312;2022-11-20T05:32:02;74.70;;;29.92;;
22111;SDS011;11222;50.872;4.312;2022-11-20T05:34:30;73.10;;;30.48;;
22111;SDS011;11222;50.872;4.312;2022-11-20T05:36:56;69.78;;;30.20;;
22111;SDS011;11222;50.872;4.312;2022-11-20T05:39:22;74.97;;;31.40;;
22111;SDS011;11222;50.872;4.312;2022-11-20T05:41:47;79.40;;;32.97;;
22111;SDS011;11222;50.872;4.312;2022-11-20T05:44:33;79.32;;;30.17;;
22111;SDS011;11222;50.872;4.312;2022-11-20T05:46:59;83.45;;;32.45;;
22111;SDS011;11222;50.872;4.312;2022-11-20T05:49:24;80.13;;;31.58;;
22111;SDS011;11222;50.872;4.312;2022-11-20T05:51:50;85.55;;;32.53;;
22111;SDS011;11222;50.872;4.312;2022-11-20T05:54:16;85.30;;;32.53;;
22111;SDS011;11222;50.872;4.312;2022-11-20T05:56:41;83.93;;;32.55;;
22111;SDS011;11222;50.872;4.312;2022-11-20T05:59:07;81.35;;;32.13;;
22111;SDS011;11222;50.872;4.312;2022-11-20T06:01:33;78.63;;;31.00;;
22111;SDS011;11222;50.872;4.312;2022-11-20T06:04:00;79.78;;;32.17;;
22111;SDS011;11222;50.872;4.312;2022-11-20T06:06:27;81.07;;;31.42;;
22111;SDS011;11222;50.872;4.312;2022-11-20T06:08:52;80.45;;;31.17;;
22111;SDS011;11222;50.872;4.312;2022-11-20T06:11:19;83.25;;;31.17;;
22111;SDS011;11222;50.872;4.312;2022-11-20T06:13:45;84.13;;;31.48;;
22111;SDS011;11222;50.872;4.312;2022-11-20T06:16:11;78.85;;;30.52;;
22111;SDS011;11222;50.872;4.312;2022-11-20T06:18:39;77.45;;;32.08;;
22111;SDS011;11222;50.872;4.312;2022-11-20T06:21:06;76.47;;;31.30;;
22111;SDS011;11222;50.872;4.312;2022-11-20T06:23:33;83.05;;;31.38;;
22111;SDS011;11222;50.872;4.312;2022-11-20T06:26:07;88.63;;;32.78;;
22111;SDS011;11222;50.872;4.312;2022-11-20T06:28:36;88.30;;;32.03;;
22111;SDS011;11222;50.872;4.312;2022-11-20T06:31:03;85.57;;;30.63;;
22111;SDS011;11222;50.872;4.312;2022-11-20T06:33:29;81.28;;;31.70;;
22111;SDS011;11222;50.872;4.312;2022-11-20T06:35:56;77.80;;;29.40;;
22111;SDS011;11222;50.872;4.312;2022-11-20T06:38:23;81.32;;;32.17;;
22111;SDS011;11222;50.872;4.312;2022-11-20T06:40:52;82.60;;;31.10;;
22111;SDS011;11222;50.872;4.312;2022-11-20T06:43:18;88.60;;;33.00;;
22111;SDS011;11222;50.872;4.312;2022-11-20T06:45:44;80.97;;;30.75;;
22111;SDS011;11222;50.872;4.312;2022-11-20T06:48:10;84.43;;;32.17;;
22111;SDS011;11222;50.872;4.312;2022-11-20T06:50:36;80.72;;;31.02;;
22111;SDS011;11222;50.872;4.312;2022-11-20T06:53:02;84.63;;;31.98;;
22111;SDS011;11222;50.872;4.312;2022-11-20T06:55:29;86.13;;;31.50;;
22111;SDS011;11222;50.872;4.312;2022-11-20T06:57:56;84.68;;;31.20;;
22111;SDS011;11222;50.872;4.312;2022-11-20T07:00:22;81.75;;;29.70;;
22111;SDS011;11222;50.872;4.312;2022-11-20T07:02:47;71.47;;;30.27;;
22111;SDS011;11222;50.872;4.312;2022-11-20T07:05:13;78.20;;;29.95;;
22111;SDS011;11222;50.872;4.312;2022-11-20T07:07:39;75.68;;;30.48;;
22111;SDS011;11222;50.872;4.312;2022-11-20T07:10:05;81.07;;;30.23;;
22111;SDS011;11222;50.872;4.312;2022-11-20T07:12:32;74.25;;;29.73;;
22111;SDS011;11222;50.872;4.312;2022-11-20T07:14:57;73.35;;;30.98;;
22111;SDS011;11222;50.872;4.312;2022-11-20T07:17:23;73.70;;;29.77;;
22111;SDS011;11222;50.872;4.312;2022-11-20T07:19:49;72.25;;;29.45;;
22111;SDS011;11222;50.872;4.312;2022-11-20T07:22:15;66.85;;;28.13;;
22111;SDS011;11222;50.872;4.312;2022-11-20T07:24:40;67.20;;;27.52;;
22111;SDS011;11222;50.872;4.312;2022-11-20T07:27:06;73.00;;;28.88;;
22111;SDS011;11222;50.872;4.312;2022-11-20T07:29:32;75.00;;;30.20;;
22111;SDS011;11222;50.872;4.312;2022-11-20T07:31:57;79.35;;;30.75;;
22111;SDS011;11222;50.872;4.312;2022-11-20T07:34:23;65.57;;;28.63;;
22111;SDS011;11222;50.872;4.312;2022-11-20T07:36:48;66.13;;;28.48;;
22111;SDS011;11222;50.872;4.312;2022-11-20T07:39:14;59.55;;;27.35;;
22111;SDS011;11222;50.872;4.312;2022-11-20T07:41:40;59.33;;;27.17;;
22111;SDS011;11222;50.872;4.312;2022-11-20T07:44:06;60.20;;;27.42;;
22111;SDS011;11222;50.872;4.312;2022-11-20T07:46:31;67.43;;;28.48;;
22111;SDS011;11222;50.872;4.312;2022-11-20T07:48:57;60.00;;;27.42;;
22111;SDS011;11222;50.872;4.312;2022-11-20T07:51:23;63.85;;;27.48;;
22111;SDS011;11222;50.872;4.312;2022-11-20T07:53:52;65.13;;;27.38;;
22111;SDS011;11222;50.872;4.312;2022-11-20T07:56:18;66.30;;;27.92;;
22111;SDS011;11222;50.872;4.312;2022-11-20T07:58:43;62.88;;;26.75;;
22111;SDS011;11222;50.872;4.312;2022-11-20T08:01:09;64.00;;;25.90;;
22111;SDS011;11222;50.872;4.312;2022-11-20T08:03:35;67.07;;;27.25;;
22111;SDS011;11222;50.872;4.312;2022-11-20T08:06:04;72.28;;;27.25;;
22111;SDS011;11222;50.872;4.312;2022-11-20T08:08:30;67.45;;;26.65;;
22111;SDS011;11222;50.872;4.312;2022-11-20T08:10:56;67.57;;;27.30;;
22111;SDS011;11222;50.872;4.312;2022-11-20T08:13:42;70.97;;;27.23;;
22111;SDS011;11222;50.872;4.312;2022-11-20T08:16:27;70.68;;;27.02;;
22111;SDS011;11222;50.872;4.312;2022-11-20T08:18:53;67.00;;;26.90;;
22111;SDS011;11222;50.872;4.312;2022-11-20T08:21:19;63.70;;;25.00;;
22111;SDS011;11222;50.872;4.312;2022-11-20T08:23:45;65.43;;;26.38;;
22111;SDS011;11222;50.872;4.312;2022-11-20T08:26:11;68.93;;;25.13;;
22111;SDS011;11222;50.872;4.312;2022-11-20T08:28:37;67.50;;;24.50;;
22111;SDS011;11222;50.872;4.312;2022-11-20T08:31:03;60.78;;;25.15;;
22111;SDS011;11222;50.872;4.312;2022-11-20T08:33:29;67.53;;;26.42;;
22111;SDS011;11222;50.872;4.312;2022-11-20T08:36:00;69.30;;;26.83;;
22111;SDS011;11222;50.872;4.312;2022-11-20T08:38:27;70.80;;;26.95;;
22111;SDS011;11222;50.872;4.312;2022-11-20T08:41:00;64.35;;;26.35;;
22111;SDS011;11222;50.872;4.312;2022-11-20T08:43:48;71.72;;;25.40;;
22111;SDS011;11222;50.872;4.312;2022-11-20T08:46:14;71.45;;;26.77;;
22111;SDS011;11222;50.872;4.312;2022-11-20T08:48:40;69.10;;;26.55;;
22111;SDS011;11222;50.872;4.312;2022-11-20T08:51:06;61.88;;;25.95;;
22111;SDS011;11222;50.872;4.312;2022-11-20T08:53:31;72.72;;;26.55;;
22111;SDS011;11222;50.872;4.312;2022-11-20T08:55:57;63.72;;;26.20;;
22111;SDS011;11222;50.872;4.312;2022-11-20T08:58:23;66.05;;;26.85;;
22111;SDS011;11222;50.872;4.312;2022-11-20T09:00:49;75.20;;;28.55;;
22111;SDS011;11222;50.872;4.312;2022-11-20T09:03:15;71.38;;;26.88;;
22111;SDS011;11222;50.872;4.312;2022-11-20T09:05:40;67.65;;;26.60;;
22111;SDS011;11222;50.872;4.312;2022-11-20T09:08:07;62.55;;;26.20;;
22111;SDS011;11222;50.872;4.312;2022-11-20T09:10:33;60.00;;;26.13;;
22111;SDS011;11222;50.872;4.312;2022-11-20T09:12:59;62.85;;;25.20;;
22111;SDS011;11222;50.872;4.312;2022-11-20T09:15:25;68.35;;;26.10;;
22111;SDS011;11222;50.872;4.312;2022-11-20T09:17:54;62.08;;;24.92;;
22111;SDS011;11222;50.872;4.312;2022-11-20T09:20:23;61.55;;;25.38;;
22111;SDS011;11222;50.872;4.312;2022-11-20T09:22:49;65.05;;;26.15;;
22111;SDS011;11222;50.872;4.312;2022-11-20T09:25:15;55.03;;;24.75;;
22111;SDS011;11222;50.872;4.312;2022-11-20T09:27:41;57.85;;;24.60;;
22111;SDS011;11222;50.872;4.312;2022-11-20T09:30:09;60.35;;;25.83;;
22111;SDS011;11222;50.872;4.312;2022-11-20T09:32:35;56.30;;;24.92;;
22111;SDS011;11222;50.872;4.312;2022-11-20T09:35:00;58.38;;;24.70;;
22111;SDS011;11222;50.872;4.312;2022-11-20T09:37:26;54.25;;;24.38;;
22111;SDS011;11222;50.872;4.312;2022-11-20T09:39:52;53.00;;;23.90;;
22111;SDS011;11222;50.872;4.312;2022-11-20T09:42:27;55.65;;;24.10;;
22111;SDS011;11222;50.872;4.312;2022-11-20T09:50:48;53.10;;;22.50;;
22111;SDS011;11222;50.872;4.312;2022-11-20T09:53:56;52.85;;;23.52;;
22111;SDS011;11222;50.872;4.312;2022-11-20T09:56:33;44.63;;;21.27;;
22111;SDS011;11222;50.872;4.312;2022-11-20T09:59:02;45.35;;;21.23;;
22111;SDS011;11222;50.872;4.312;2022-11-20T10:01:32;37.20;;;19.08;;
22111;SDS011;11222;50.872;4.312;2022-11-20T10:04:03;40.75;;;19.67;;
22111;SDS011;11222;50.872;4.312;2022-11-20T10:06:33;38.65;;;19.75;;
22111;SDS011;11222;50.872;4.312;2022-11-20T10:09:07;41.10;;;19.35;;
22111;SDS011;11222;50.872;4.312;2022-11-20T10:14:16;41.50;;;18.50;;
22111;SDS011;11222;50.872;4.312;2022-11-20T10:20:19;33.55;;;17.38;;
22111;SDS011;11222;50.872;4.312;2022-11-20T10:22:53;34.75;;;16.45;;
22111;SDS011;11222;50.872;4.312;2022-11-20T10:25:38;28.45;;;14.88;;
22111;SDS011;11222;50.872;4.312;2022-11-20T10:30:57;27.15;;;14.75;;
22111;SDS011;11222;50.872;4.312;2022-11-20T10:33:29;25.30;;;13.88;;
22111;SDS011;11222;50.872;4.312;2022-11-20T10:41:03;21.27;;;10.85;;
22111;SDS011;11222;50.872;4.312;2022-11-20T10:43:50;15.63;;;8.73;;
22111;SDS011;11222;50.872;4.312;2022-11-20T10:46:33;21.50;;;9.57;;
22111;SDS011;11222;50.872;4.312;2022-11-20T10:49:04;14.35;;;8.10;;
22111;SDS011;11222;50.872;4.312;2022-11-20T10:56:38;15.60;;;7.40;;
22111;SDS011;11222;50.872;4.312;2022-11-20T10:59:31;14.02;;;7.20;;
22111;SDS011;11222;50.872;4.312;2022-11-20T11:02:15;17.08;;;7.45;;
22111;SDS011;11222;50.872;4.312;2022-11-20T11:04:46;12.60;;;7.18;;
22111;SDS011;11222;50.872;4.312;2022-11-20T11:07:21;18.90;;;9.68;;
22111;SDS011;11222;50.872;4.312;2022-11-20T11:10:01;13.45;;;6.43;;
22111;SDS011;11222;50.872;4.312;2022-11-20T11:12:27;13.25;;;6.50;;
22111;SDS011;11222;50.872;4.312;2022-11-20T11:14:54;13.38;;;6.55;;
22111;SDS011;11222;50.872;4.312;2022-11-20T11:17:28;15.15;;;6.75;;
22111;SDS011;11222;50.872;4.312;2022-11-20T11:20:06;15.48;;;7.07;;
22111;SDS011;11222;50.872;4.312;2022-11-20T11:22:43;13.77;;;6.95;;
22111;SDS011;11222;50.872;4.312;2022-11-20T11:25:29;13.60;;;6.32;;
22111;SDS011;11222;50.872;4.312;2022-11-20T11:28:20;12.50;;;7.03;;
22111;SDS011;11222;50.872;4.312;2022-11-20T11:30:45;17.83;;;7.60;;
22111;SDS011;11222;50.872;4.312;2022-11-20T11:36:01;12.15;;;6.22;;
22111;SDS011;11222;50.872;4.312;2022-11-20T11:38:30;13.52;;;5.68;;
22111;SDS011;11222;50.872;4.312;2022-11-20T11:41:00;13.70;;;6.20;;
22111;SDS011;11222;50.872;4.312;2022-11-20T11:43:31;11.05;;;6.38;;
22111;SDS011;11222;50.872;4.312;2022-11-20T11:51:22;10.20;;;5.90;;
22111;SDS011;11222;50.872;4.312;2022-11-20T11:53:51;12.55;;;5.97;;
22111;SDS011;11222;50.872;4.312;2022-11-20T11:56:17;15.75;;;5.53;;
22111;SDS011;11222;50.872;4.312;2022-11-20T11:58:47;10.20;;;5.05;;
22111;SDS011;11222;50.872;4.312;2022-11-20T12:06:25;15.77;;;5.10;;
22111;SDS011;11222;50.872;4.312;2022-11-20T12:09:10;14.32;;;6.28;;
22111;SDS011;11222;50.872;4.312;2022-11-20T12:14:32;14.23;;;5.47;;
22111;SDS011;11222;50.872;4.312;2022-11-20T12:17:01;7.70;;;4.77;;
22111;SDS011;11222;50.872;4.312;2022-11-20T12:19:33;11.25;;;5.53;;
22111;SDS011;11222;50.872;4.312;2022-11-20T12:30:28;12.30;;;4.70;;
22111;SDS011;11222;50.872;4.312;2022-11-20T12:43:25;9.73;;;4.95;;
22111;SDS011;11222;50.872;4.312;2022-11-20T12:49:02;13.02;;;5.18;;
22111;SDS011;11222;50.872;4.312;2022-11-20T12:51:45;11.40;;;5.30;;
22111;SDS011;11222;50.872;4.312;2022-11-20T13:07:30;5.68;;;4.55;;
22111;SDS011;11222;50.872;4.312;2022-11-20T13:09:57;6.57;;;4.70;;
22111;SDS011;11222;50.872;4.312;2022-11-20T13:12:27;10.07;;;4.65;;
22111;SDS011;11222;50.872;4.312;2022-11-20T13:15:18;10.40;;;4.70;;
22111;SDS011;11222;50.872;4.312;2022-11-20T13:17:51;9.18;;;5.05;;
22111;SDS011;11222;50.872;4.312;2022-11-20T13:20:22;11.90;;;4.65;;
22111;SDS011;11222;50.872;4.312;2022-11-20T13:22:52;7.65;;;4.65;;
22111;SDS011;11222;50.872;4.312;2022-11-20T13:27:53;9.57;;;5.53;;
22111;SDS011;11222;50.872;4.312;2022-11-20T13:30:22;8.75;;;4.85;;
22111;SDS011;11222;50.872;4.312;2022-11-20T13:35:54;8.38;;;5.10;;
22111;SDS011;11222;50.872;4.312;2022-11-20T13:38:19;9.38;;;5.15;;
22111;SDS011;11222;50.872;4.312;2022-11-20T13:40:53;10.50;;;5.43;;
22111;SDS011;11222;50.872;4.312;2022-11-20T13:43:34;11.98;;;5.90;;
22111;SDS011;11222;50.872;4.312;2022-11-20T13:46:07;8.93;;;5.18;;
22111;SDS011;11222;50.872;4.312;2022-11-20T13:48:38;7.15;;;5.20;;
22111;SDS011;11222;50.872;4.312;2022-11-20T13:56:23;8.05;;;5.00;;
22111;SDS011;11222;50.872;4.312;2022-11-20T14:00:11;9.02;;;5.68;;
22111;SDS011;11222;50.872;4.312;2022-11-20T14:03:09;9.98;;;4.95;;
22111;SDS011;11222;50.872;4.312;2022-11-20T14:05:38;7.68;;;4.95;;
22111;SDS011;11222;50.872;4.312;2022-11-20T14:08:14;8.00;;;5.38;;
22111;SDS011;11222;50.872;4.312;2022-11-20T14:10:48;6.25;;;4.85;;
22111;SDS011;11222;50.872;4.312;2022-11-20T14:13:17;6.53;;;4.70;;
22111;SDS011;11222;50.872;4.312;2022-11-20T14:15:44;7.45;;;5.10;;
22111;SDS011;11222;50.872;4.312;2022-11-20T14:18:11;7.90;;;4.63;;
22111;SDS011;11222;50.872;4.312;2022-11-20T14:20:44;9.15;;;5.03;;
22111;SDS011;11222;50.872;4.312;2022-11-20T14:23:10;6.57;;;4.50;;
22111;SDS011;11222;50.872;4.312;2022-11-20T14:25:36;5.82;;;4.38;;
22111;SDS011;11222;50.872;4.312;2022-11-20T14:28:10;7.93;;;4.30;;
22111;SDS011;11222;50.872;4.312;2022-11-20T14:30:46;5.60;;;4.30;;
22111;SDS011;11222;50.872;4.312;2022-11-20T14:33:13;8.98;;;4.32;;
22111;SDS011;11222;50.872;4.312;2022-11-20T14:35:45;6.35;;;4.13;;
22111;SDS011;11222;50.872;4.312;2022-11-20T14:38:17;7.45;;;4.80;;
22111;SDS011;11222;50.872;4.312;2022-11-20T14:40:44;5.65;;;4.30;;
22111;SDS011;11222;50.872;4.312;2022-11-20T14:43:23;5.47;;;4.20;;
22111;SDS011;11222;50.872;4.312;2022-11-20T14:45:58;6.88;;;4.00;;
22111;SDS011;11222;50.872;4.312;2022-11-20T14:48:36;8.55;;;4.75;;
22111;SDS011;11222;50.872;4.312;2022-11-20T14:51:05;6.65;;;4.45;;
22111;SDS011;11222;50.872;4.312;2022-11-20T14:53:30;7.65;;;4.55;;
22111;SDS011;11222;50.872;4.312;2022-11-20T14:56:00;4.57;;;3.97;;
22111;SDS011;11222;50.872;4.312;2022-11-20T14:58:28;6.15;;;4.68;;
22111;SDS011;11222;50.872;4.312;2022-11-20T15:01:00;5.22;;;4.35;;
22111;SDS011;11222;50.872;4.312;2022-11-20T15:03:40;8.88;;;5.65;;
22111;SDS011;11222;50.872;4.312;2022-11-20T15:06:06;6.40;;;4.90;;
22111;SDS011;11222;50.872;4.312;2022-11-20T15:08:35;11.38;;;8.23;;
22111;SDS011;11222;50.872;4.312;2022-11-20T15:11:01;8.57;;;5.97;;
22111;SDS011;11222;50.872;4.312;2022-11-20T15:13:37;8.43;;;5.30;;
22111;SDS011;11222;50.872;4.312;2022-11-20T15:16:13;9.38;;;5.47;;
22111;SDS011;11222;50.872;4.312;2022-11-20T15:18:44;10.25;;;6.28;;
22111;SDS011;11222;50.872;4.312;2022-11-20T15:21:11;9.13;;;5.60;;
22111;SDS011;11222;50.872;4.312;2022-11-20T15:23:40;7.80;;;5.78;;
22111;SDS011;11222;50.872;4.312;2022-11-20T15:26:07;8.48;;;6.15;;
22111;SDS011;11222;50.872;4.312;2022-11-20T15:28:34;10.48;;;5.78;;
22111;SDS011;11222;50.872;4.312;2022-11-20T15:31:04;9.77;;;6.10;;
22111;SDS011;11222;50.872;4.312;2022-11-20T15:33:30;9.02;;;6.45;;
22111;SDS011;11222;50.872;4.312;2022-11-20T15:35:57;13.93;;;7.03;;
22111;SDS011;11222;50.872;4.312;2022-11-20T15:38:23;8.75;;;6.20;;
22111;SDS011;11222;50.872;4.312;2022-11-20T15:40:50;8.55;;;5.75;;
22111;SDS011;11222;50.872;4.312;2022-11-20T15:43:16;9.38;;;5.97;;
22111;SDS011;11222;50.872;4.312;2022-11-20T15:45:44;12.10;;;6.13;;
22111;SDS011;11222;50.872;4.312;2022-11-20T15:48:24;13.98;;;5.05;;
22111;SDS011;11222;50.872;4.312;2022-11-20T15:53:45;10.88;;;5.22;;
22111;SDS011;11222;50.872;4.312;2022-11-20T15:56:11;9.88;;;5.65;;
22111;SDS011;11222;50.872;4.312;2022-11-20T15:58:38;13.82;;;5.55;;
22111;SDS011;11222;50.872;4.312;2022-11-20T16:01:04;12.60;;;5.20;;
22111;SDS011;11222;50.872;4.312;2022-11-20T16:03:29;17.10;;;6.53;;
22111;SDS011;11222;50.872;4.312;2022-11-20T16:05:56;9.88;;;4.90;;
22111;SDS011;11222;50.872;4.312;2022-11-20T16:08:22;8.82;;;4.40;;
22111;SDS011;11222;50.872;4.312;2022-11-20T16:10:48;15.70;;;4.97;;
22111;SDS011;11222;50.872;4.312;2022-11-20T16:13:15;23.60;;;5.68;;
22111;SDS011;11222;50.872;4.312;2022-11-20T16:16:04;12.40;;;4.80;;